Time;durP1;ratioP1;P1;durP2;ratioP2;P2;SDS_P1;SDS_P2;PMS_P1;PMS_P2;Temp;Humidity;BMP_temperature;BMP_pressure;BME280_temperature;BME280_humidity;BME280_pressure;Samples;Min_cycle;Max_cycle;Signal;HPM_P1;HPM_P2
2024/04/08 00:04:00;;;;;;;8.50;2.70;;;;;;;20.69;53.55;99553.19;11035529;26;20009;-61
2024/04/08 00:09:03;;;;;;;4.45;2.00;;;;;;;20.64;54.04;99545.66;11078087;26;20603;-61
2024/04/08 00:14:04;;;;;;;5.37;3.20;;;;;;;20.63;54.03;99531.34;11058417;26;20008;-60
2024/04/08 00:19:06;;;;;;;4.07;2.35;;;;;;;20.63;53.93;99525.09;11071772;26;20007;-60
2024/04/08 00:24:07;;;;;;;6.50;2.03;;;;;;;20.54;53.96;99512.81;11093764;26;20014;-61
2024/04/08 00:29:09;;;;;;;8.02;2.45;;;;;;;20.54;54.04;99519.06;11092770;26;20013;-61
2024/04/08 00:34:10;;;;;;;8.27;2.30;;;;;;;20.51;53.78;99497.84;11097548;26;20019;-61
2024/04/08 00:39:12;;;;;;;7.50;2.03;;;;;;;20.48;54.24;99496.38;11095436;26;20008;-61
2024/04/08 00:44:13;;;;;;;7.40;2.80;;;;;;;20.54;54.28;99497.44;11087855;26;20023;-62
2024/04/08 00:49:15;;;;;;;7.07;1.73;;;;;;;20.46;54.40;99468.75;11085846;26;20449;-62
2024/04/08 00:54:17;;;;;;;5.72;2.08;;;;;;;20.54;54.21;99486.63;11106900;26;20515;-60
2024/04/08 00:59:21;;;;;;;6.30;2.65;;;;;;;20.51;54.41;99497.84;11063418;26;20076;-61
2024/04/08 01:04:22;;;;;;;;;;;;;;;20.50;54.81;99509.69;11060340;26;20008;-62
2024/04/08 01:09:24;;;;;;;5.55;2.20;;;;;;;20.47;55.11;99513.63;11042405;26;19932;-62
2024/04/08 01:14:26;;;;;;;8.75;2.72;;;;;;;20.36;55.61;99495.34;11038862;26;20138;-62
2024/04/08 01:19:28;;;;;;;5.47;2.50;;;;;;;20.42;55.87;99510.72;11057764;26;20024;-62
2024/04/08 01:24:30;;;;;;;4.68;2.50;;;;;;;20.37;56.01;99507.81;11072631;26;20012;-62
2024/04/08 01:29:35;;;;;;;5.50;2.38;;;;;;;20.36;56.14;99503.44;11058393;26;20090;-61
2024/04/08 01:34:37;;;;;;;7.65;2.80;;;;;;;20.32;56.94;99504.88;11063967;26;20474;-61
2024/04/08 01:39:41;;;;;;;6.65;2.67;;;;;;;20.27;56.90;99507.38;10999666;26;20032;-61
2024/04/08 01:44:42;;;;;;;6.05;2.58;;;;;;;20.26;57.25;99511.13;11060442;26;20008;-61
2024/04/08 01:49:44;;;;;;;6.40;3.17;;;;;;;20.22;57.21;99494.50;11054033;26;20008;-62
2024/04/08 01:54:46;;;;;;;7.57;2.65;;;;;;;20.16;57.46;99491.75;11063399;26;20648;-62
2024/04/08 01:59:48;;;;;;;7.63;2.67;;;;;;;20.15;57.52;99504.44;11060916;26;20023;-61
2024/04/08 02:04:50;;;;;;;6.35;2.78;;;;;;;20.14;57.83;99509.00;11079593;26;20008;-61
2024/04/08 02:09:53;;;;;;;10.10;2.60;;;;;;;20.12;57.50;99489.47;11089004;26;20023;-61
2024/04/08 02:14:54;;;;;;;6.50;3.65;;;;;;;19.92;57.27;99481.31;11067378;26;20025;-62
2024/04/08 02:19:56;;;;;;;8.18;2.80;;;;;;;20.10;57.90;99540.19;11056498;26;20005;-61
2024/04/08 02:24:58;;;;;;;7.40;2.40;;;;;;;20.07;58.28;99529.78;10978354;26;20058;-61
2024/04/08 02:29:59;;;;;;;7.95;2.97;;;;;;;20.05;58.01;99514.81;11039048;26;20015;-61
2024/04/08 02:35:04;;;;;;;5.72;2.50;;;;;;;20.00;59.01;99507.31;11005870;26;20788;-62
2024/04/08 02:40:10;;;;;;;6.45;2.67;;;;;;;20.03;59.14;99525.00;10996154;26;20032;-60
2024/04/08 02:45:11;;;;;;;5.10;2.33;;;;;;;19.94;59.14;99411.72;10998923;26;20004;-62
2024/04/08 02:50:13;;;;;;;5.30;3.00;;;;;;;19.82;61.50;99482.75;10993911;26;20021;-61
2024/04/08 02:55:14;;;;;;;7.18;3.13;;;;;;;19.75;63.17;99505.09;11008877;26;20175;-61
2024/04/08 03:00:16;;;;;;;6.28;3.00;;;;;;;19.61;64.65;99525.00;10997992;26;20020;-61
2024/04/08 03:05:17;;;;;;;9.63;4.00;;;;;;;19.45;64.12;99536.94;11007123;26;20759;-62
2024/04/08 03:10:19;;;;;;;9.27;2.70;;;;;;;19.47;64.32;99477.38;11009129;26;20020;-61
2024/04/08 03:15:21;;;;;;;7.60;3.28;;;;;;;19.55;63.67;99482.63;11055043;26;20008;-62
2024/04/08 03:20:23;;;;;;;7.95;3.03;;;;;;;19.55;63.76;99506.91;11050143;26;20015;-61
2024/04/08 03:25:25;;;;;;;7.37;3.27;;;;;;;19.52;65.07;99515.41;10983515;26;20013;-63
2024/04/08 03:30:26;;;;;;;7.70;2.80;;;;;;;19.39;65.76;99525.06;10985360;26;20056;-61
2024/04/08 03:35:28;;;;;;;7.78;3.00;;;;;;;19.41;65.85;99481.69;10980001;26;20009;-62
2024/04/08 03:40:30;;;;;;;6.18;2.47;;;;;;;19.25;66.63;99542.22;10978193;26;20059;-61
2024/04/08 03:45:32;;;;;;;9.15;3.45;;;;;;;19.13;65.25;99533.03;11052300;26;20008;-61
2024/04/08 03:50:35;;;;;;;6.68;2.40;;;;;;;19.12;65.59;99515.16;10996782;26;20669;-61
2024/04/08 03:55:37;;;;;;;6.90;3.10;;;;;;;18.92;65.74;99501.56;10995401;26;20615;-62
2024/04/08 04:00:38;;;;;;;5.60;2.72;;;;;;;18.81;65.95;99522.59;11001639;26;20666;-61
2024/04/08 04:05:40;;;;;;;7.15;3.25;;;;;;;18.70;66.10;99510.44;10994417;26;20049;-61
2024/04/08 04:10:44;;;;;;;12.40;4.47;;;;;;;18.75;66.68;99517.97;11017107;26;20004;-61
2024/04/08 04:15:45;;;;;;;5.30;2.83;;;;;;;18.77;66.57;99512.38;11060537;26;20087;-63
2024/04/08 04:20:47;;;;;;;7.10;2.83;;;;;;;18.66;66.16;99519.97;11009015;26;20040;-61
2024/04/08 04:25:53;;;;;;;7.53;2.85;;;;;;;18.57;67.39;99528.38;10994597;26;20016;-62
2024/04/08 04:30:56;;;;;;;9.15;2.83;;;;;;;18.57;67.58;99539.16;10982177;26;20009;-62
2024/04/08 04:36:03;;;;;;;7.65;3.10;;;;;;;18.54;67.19;99537.69;11029092;26;20009;-60
2024/04/08 04:41:06;;;;;;;6.85;3.00;;;;;;;18.41;66.25;99532.19;11002520;26;20036;-61
2024/04/08 04:46:07;;;;;;;7.82;2.65;;;;;;;18.45;66.08;99546.91;10995554;26;20093;-61
2024/04/08 04:51:10;;;;;;;5.68;2.80;;;;;;;18.39;66.58;99548.53;10999950;26;20348;-62
2024/04/08 04:56:11;;;;;;;5.35;2.78;;;;;;;18.44;66.19;99547.97;11051327;26;20765;-62
2024/04/08 05:01:13;;;;;;;6.82;2.88;;;;;;;18.46;66.13;99545.91;10992644;26;20013;-63
2024/04/08 05:06:14;;;;;;;5.57;3.08;;;;;;;18.41;66.48;99551.03;11040346;26;20013;-62
2024/04/08 05:11:16;;;;;;;7.72;3.25;;;;;;;18.37;65.37;99547.88;10995566;26;20090;-62
2024/04/08 05:16:17;;;;;;;5.47;3.15;;;;;;;18.34;65.92;99535.63;10974107;26;20753;-62
2024/04/08 05:21:21;;;;;;;7.00;2.60;;;;;;;18.42;63.94;99542.75;10990696;26;20017;-63
2024/04/08 05:26:22;;;;;;;5.55;2.17;;;;;;;18.42;63.60;99548.16;10991615;26;20479;-60
2024/04/08 05:31:24;;;;;;;5.57;1.83;;;;;;;18.32;62.05;99534.16;11007998;26;20120;-61
2024/04/08 05:36:26;;;;;;;4.90;2.20;;;;;;;18.43;62.06;99548.97;11000174;26;20016;-61
2024/04/08 05:41:27;;;;;;;6.18;2.47;;;;;;;18.43;61.61;99544.41;11001745;26;20026;-61
2024/04/08 05:46:29;;;;;;;8.00;3.25;;;;;;;18.42;61.17;99539.22;11025280;26;20071;-61
2024/04/08 05:51:31;;;;;;;6.57;2.33;;;;;;;18.45;61.21;99534.28;11028907;26;20012;-61
2024/04/08 05:56:32;;;;;;;10.52;2.35;;;;;;;18.49;60.09;99540.13;11028274;26;20219;-61
2024/04/08 06:01:35;;;;;;;7.40;2.20;;;;;;;18.57;60.22;99540.00;11004764;26;20610;-61
2024/04/08 06:06:36;;;;;;;7.80;2.28;;;;;;;18.56;59.60;99527.56;11003043;26;20013;-62
2024/04/08 06:11:39;;;;;;;8.93;2.97;;;;;;;18.69;59.31;99548.38;11002394;26;20086;-62
2024/04/08 06:16:43;;;;;;;8.75;2.88;;;;;;;18.70;58.51;99541.97;11001319;26;20707;-63
2024/04/08 06:21:45;;;;;;;12.07;2.90;;;;;;;18.84;58.56;99559.94;11012342;26;20008;-62
2024/04/08 06:26:49;;;;;;;6.68;2.85;;;;;;;18.95;58.42;99555.91;11018771;26;20018;-63
2024/04/08 06:31:52;;;;;;;7.03;2.28;;;;;;;18.99;58.18;99553.63;11080568;26;20827;-63
2024/04/08 06:36:54;;;;;;;6.83;2.30;;;;;;;19.18;57.96;99557.53;11061203;26;20012;-63
2024/04/08 06:41:55;;;;;;;4.85;2.40;;;;;;;19.29;57.57;99554.31;11063645;26;20146;-63
2024/04/08 06:46:58;;;;;;;6.38;2.25;;;;;;;19.39;57.56;99543.97;11058572;26;20200;-63
2024/04/08 06:51:59;;;;;;;5.80;2.88;;;;;;;19.59;56.00;99560.28;11056968;26;20060;-62
2024/04/08 06:57:03;;;;;;;5.60;2.28;;;;;;;19.70;55.63;99550.78;11059689;26;20008;-63
2024/04/08 07:02:05;;;;;;;5.05;2.70;;;;;;;19.77;53.94;99545.41;11070990;26;20018;-63
2024/04/08 07:07:06;;;;;;;9.05;2.28;;;;;;;19.89;53.83;99541.16;11031296;26;20011;-63
2024/04/08 07:12:08;;;;;;;8.07;2.42;;;;;;;19.99;52.83;99546.16;11064838;26;20012;-59
2024/04/08 07:17:09;;;;;;;4.88;1.90;;;;;;;20.16;52.47;99537.69;11061293;26;20963;-62
2024/04/08 07:22:12;;;;;;;12.15;3.08;;;;;;;20.33;51.85;99541.69;11026209;26;20131;-63
2024/04/08 07:27:14;;;;;;;9.85;2.53;;;;;;;20.45;50.97;99537.34;10993561;26;20020;-63
2024/04/08 07:32:15;;;;;;;6.20;2.30;;;;;;;20.57;49.75;99534.03;11000735;26;20021;-62
2024/04/08 07:37:18;;;;;;;8.60;1.73;;;;;;;20.68;51.05;99522.63;11054326;26;20029;-63
2024/04/08 07:42:20;;;;;;;8.13;2.80;;;;;;;20.96;49.68;99537.81;10990970;26;20073;-63
2024/04/08 07:47:21;;;;;;;6.28;1.92;;;;;;;21.29;49.66;99535.06;11033727;26;20028;-62
2024/04/08 07:52:23;;;;;;;6.70;1.67;;;;;;;21.45;47.71;99532.94;11002686;26;20100;-63
2024/04/08 07:57:25;;;;;;;7.32;2.97;;;;;;;21.55;45.20;99549.63;11006656;26;20008;-64
2024/04/08 08:02:29;;;;;;;5.70;1.83;;;;;;;21.56;45.20;99547.72;11005843;26;20009;-63
2024/04/08 08:07:30;;;;;;;7.78;2.17;;;;;;;21.66;44.16;99542.69;10963427;26;20320;-63
2024/04/08 08:12:33;;;;;;;6.03;1.87;;;;;;;21.84;43.69;99540.16;11041069;26;20753;-63
2024/04/08 08:17:35;;;;;;;5.88;1.98;;;;;;;21.98;43.81;99537.34;11007976;26;20087;-62
2024/04/08 08:22:36;;;;;;;6.93;1.85;;;;;;;22.13;44.07;99535.22;11014684;26;20009;-62
2024/04/08 08:27:38;;;;;;;6.65;1.90;;;;;;;22.17;42.00;99539.16;11009547;26;20035;-63
2024/04/08 08:32:39;;;;;;;8.00;2.03;;;;;;;22.24;42.21;99539.13;11000141;26;20086;-63
2024/04/08 08:37:41;;;;;;;6.55;1.70;;;;;;;22.33;40.64;99534.31;11003369;26;20016;-63
2024/04/08 08:42:51;;;;;;;4.47;1.67;;;;;;;22.45;41.27;99529.00;11001650;26;20029;-63
2024/04/08 08:47:52;;;;;;;5.57;1.80;;;;;;;22.60;40.65;99527.63;10997601;26;20017;-61
2024/04/08 08:52:56;;;;;;;8.15;1.60;;;;;;;22.85;39.75;99536.81;10998675;26;20008;-62
2024/04/08 08:57:58;;;;;;;6.47;2.40;;;;;;;22.93;41.41;99531.13;11011008;26;20672;-62
2024/04/08 09:03:00;;;;;;;9.60;2.05;;;;;;;23.25;39.80;99531.06;11040920;26;20013;-63
2024/04/08 09:08:02;;;;;;;7.47;1.88;;;;;;;23.18;40.02;99536.59;11007482;26;20787;-63
2024/04/08 09:13:04;;;;;;;6.93;2.03;;;;;;;23.29;40.42;99518.72;11019016;26;20019;-61
2024/04/08 09:18:05;;;;;;;6.70;1.40;;;;;;;23.60;40.95;99519.63;11068314;26;20088;-63
2024/04/08 09:23:08;;;;;;;7.43;2.20;;;;;;;23.85;39.83;99516.84;11034285;26;20009;-63
2024/04/08 09:28:11;;;;;;;6.88;1.98;;;;;;;23.90;39.50;99519.72;11003117;26;20024;-63
2024/04/08 09:33:13;;;;;;;6.85;2.35;;;;;;;24.19;38.63;99509.06;11007347;26;20012;-61
2024/04/08 09:38:17;;;;;;;4.50;1.40;;;;;;;24.57;37.22;99507.88;11052872;26;20116;-62
2024/04/08 09:43:20;;;;;;;10.18;1.58;;;;;;;24.86;37.54;99521.66;11075488;26;21256;-65
2024/04/08 09:48:22;;;;;;;6.70;1.70;;;;;;;24.99;36.22;99521.44;11067765;26;20009;-62
2024/04/08 09:53:24;;;;;;;5.93;1.75;;;;;;;25.11;35.91;99529.59;11008670;26;20110;-64
2024/04/08 09:58:30;;;;;;;8.43;2.40;;;;;;;25.31;35.14;99529.28;11006684;26;20081;-63
2024/04/08 10:03:40;;;;;;;5.75;2.47;;;;;;;25.44;36.14;99520.03;11006532;26;21375;-62
2024/04/08 10:08:43;;;;;;;7.65;2.38;;;;;;;25.90;35.61;99506.53;10999761;26;20023;-63
2024/04/08 10:13:49;;;;;;;7.30;2.22;;;;;;;26.31;34.09;99504.59;11000187;26;20025;-62
2024/04/08 10:18:55;;;;;;;11.35;1.90;;;;;;;26.38;34.30;99490.81;11005574;26;20473;-63
2024/04/08 10:23:59;;;;;;;8.57;1.92;;;;;;;26.65;33.11;99493.72;11028907;26;20031;-63
2024/04/08 10:29:05;;;;;;;7.53;1.73;;;;;;;26.80;32.85;99474.88;11040186;26;20577;-62
2024/04/08 10:34:06;;;;;;;8.82;1.70;;;;;;;27.04;32.86;99474.66;11002496;26;20001;-63
2024/04/08 10:39:09;;;;;;;8.48;2.30;;;;;;;26.84;32.26;99460.72;11002823;26;20023;-63
2024/04/08 10:44:10;;;;;;;11.07;1.98;;;;;;;27.05;30.66;99470.84;10997942;26;20621;-62
2024/04/08 10:49:12;;;;;;;8.15;1.40;;;;;;;27.45;30.31;99464.31;10997774;26;20032;-63
2024/04/08 10:54:14;;;;;;;9.23;2.93;;;;;;;27.32;31.54;99470.13;11047022;26;20708;-62
2024/04/08 10:59:15;;;;;;;13.02;5.72;;;;;;;27.02;31.67;99465.88;10997049;26;20240;-61
2024/04/08 11:04:18;;;;;;;9.77;3.22;;;;;;;26.51;32.50;99465.91;11021131;26;20024;-63
2024/04/08 11:09:19;;;;;;;10.15;2.60;;;;;;;26.08;33.24;99460.00;10996683;26;20711;-64
2024/04/08 11:14:21;;;;;;;9.55;2.33;;;;;;;25.97;32.99;99469.00;10979422;26;20009;-62
2024/04/08 11:19:22;;;;;;;10.30;2.67;;;;;;;26.69;32.78;99451.19;11002157;26;20015;-63
2024/04/08 11:24:24;;;;;;;11.47;3.43;;;;;;;26.93;31.91;99440.09;10996592;26;20728;-65
2024/04/08 11:29:26;;;;;;;11.57;3.55;;;;;;;27.85;32.23;99451.38;11043783;26;20001;-63
2024/04/08 11:34:28;;;;;;;8.18;2.28;;;;;;;28.64;29.40;99443.66;10993328;26;20019;-62
2024/04/08 11:39:29;;;;;;;6.97;2.80;;;;;;;29.08;29.29;99440.66;11040034;26;20009;-64
2024/04/08 11:44:32;;;;;;;9.53;2.37;;;;;;;29.18;28.95;99440.69;10991932;26;20028;-63
2024/04/08 11:49:34;;;;;;;8.60;2.25;;;;;;;29.76;28.65;99445.34;10964830;26;20023;-63
2024/04/08 11:54:35;;;;;;;7.97;2.50;;;;;;;29.68;28.89;99443.09;11042839;26;20016;-62
2024/04/08 11:59:54;;;;;;;11.02;2.22;;;;;;;29.16;29.40;99433.84;11036207;26;20352;-63
2024/04/08 12:04:56;;;;;;;12.23;2.72;;;;;;;28.76;29.41;99432.50;11003119;26;20023;-62
2024/04/08 12:09:59;;;;;;;8.27;2.13;;;;;;;29.27;28.98;99428.19;11010260;26;20025;-64
2024/04/08 12:15:04;;;;;;;9.10;2.28;;;;;;;29.13;28.44;99421.50;11064100;26;20027;-63
2024/04/08 12:20:07;;;;;;;10.65;2.83;;;;;;;28.34;27.78;99423.13;11005085;26;20060;-65
2024/04/08 12:25:09;;;;;;;12.02;2.88;;;;;;;27.77;29.64;99419.03;10999501;26;20009;-63
2024/04/08 12:30:12;;;;;;;8.07;2.17;;;;;;;28.31;28.25;99426.41;11039177;26;21144;-64
2024/04/08 12:35:14;;;;;;;9.38;2.08;;;;;;;29.37;26.62;99415.59;10992492;26;20106;-62
2024/04/08 12:40:15;;;;;;;6.63;1.77;;;;;;;28.49;27.36;99406.81;10995911;26;20019;-62
2024/04/08 12:45:19;;;;;;;8.40;2.28;;;;;;;28.25;27.92;99402.81;11034453;26;20075;-62
2024/04/08 12:50:21;;;;;;;5.35;1.80;;;;;;;28.61;26.89;99397.66;10992393;26;20056;-62
2024/04/08 12:55:23;;;;;;;6.87;2.00;;;;;;;29.18;26.83;99394.09;10999668;26;20076;-63
2024/04/08 13:00:24;;;;;;;8.47;2.67;;;;;;;29.68;25.96;99367.16;11008521;26;20121;-63
2024/04/08 13:05:26;;;;;;;7.43;1.85;;;;;;;29.83;26.52;99344.47;10999362;26;21723;-67
2024/04/08 13:10:28;;;;;;;8.07;2.47;;;;;;;29.69;25.21;99332.34;11014871;26;20016;-64
2024/04/08 13:15:30;;;;;;;6.55;1.98;;;;;;;29.97;25.66;99342.00;10994447;26;20061;-66
2024/04/08 13:20:31;;;;;;;9.50;2.42;;;;;;;29.79;24.94;99333.16;11065810;26;20547;-67
2024/04/08 13:25:33;;;;;;;11.82;2.45;;;;;;;29.68;24.74;99341.66;11095831;26;20031;-65
2024/04/08 13:30:40;;;;;;;11.77;2.05;;;;;;;29.64;24.87;99346.06;11071199;26;20059;-65
2024/04/08 13:35:44;;;;;;;6.85;1.50;;;;;;;29.68;29.38;99356.19;10985671;26;20024;-66
2024/04/08 13:40:46;;;;;;;9.40;2.08;;;;;;;29.76;25.23;99349.34;11074222;26;20048;-65
2024/04/08 13:45:47;;;;;;;7.20;1.67;;;;;;;29.56;25.94;99326.28;10985999;26;20896;-62
2024/04/08 13:50:49;;;;;;;10.20;1.80;;;;;;;29.66;24.56;99352.06;11025710;26;20020;-62
2024/04/08 13:56:00;;;;;;;8.35;2.00;;;;;;;29.45;24.66;99346.53;10989905;26;20016;-63
2024/04/08 14:01:02;;;;;;;8.27;1.70;;;;;;;29.26;25.15;99352.53;11050669;26;20012;-63
2024/04/08 14:06:08;;;;;;;7.28;1.88;;;;;;;29.31;24.73;99345.44;11059167;26;20020;-64
2024/04/08 14:11:12;;;;;;;12.35;1.83;;;;;;;29.38;25.38;99330.38;11021768;26;20081;-64
2024/04/08 14:16:13;;;;;;;9.38;2.33;;;;;;;29.12;24.94;99334.09;11064508;26;20031;-62
2024/04/08 14:21:17;;;;;;;;;;;;;;;28.99;25.25;99327.19;11047134;26;20520;-62
2024/04/08 14:26:19;;;;;;;;;;;;;;;28.90;25.04;99327.72;11060830;26;20570;-63
2024/04/08 14:31:21;;;;;;;8.60;2.10;;;;;;;28.88;25.40;99320.84;11060900;26;19925;-62
2024/04/08 14:36:24;;;;;;;6.70;1.80;;;;;;;28.65;25.06;99316.66;11030513;26;20007;-63
2024/04/08 14:41:26;;;;;;;8.85;1.83;;;;;;;28.30;25.42;99307.94;11024049;26;20004;-68
2024/04/08 14:46:28;;;;;;;6.53;2.20;;;;;;;27.85;25.74;99299.09;11031459;26;20022;-68
2024/04/08 14:51:31;;;;;;;9.45;1.90;;;;;;;27.73;26.05;99284.78;11078706;26;20019;-68
2024/04/08 14:56:40;;;;;;;8.38;1.65;;;;;;;27.96;26.07;99280.03;11076414;26;20131;-67
2024/04/08 15:01:42;;;;;;;8.82;2.17;;;;;;;27.96;25.94;99271.81;11051775;26;20000;-68
2024/04/08 15:06:44;;;;;;;7.27;1.37;;;;;;;27.72;25.32;99277.66;11031931;26;20756;-65
2024/04/08 15:11:46;;;;;;;4.17;1.70;;;;;;;27.64;26.24;99272.66;11040723;26;20016;-64
2024/04/08 15:16:47;;;;;;;6.20;2.00;;;;;;;27.46;25.19;99258.28;11045671;26;20008;-64
2024/04/08 15:21:49;;;;;;;9.20;1.60;;;;;;;27.56;25.75;99262.19;11051292;26;20685;-63
2024/04/08 15:26:51;;;;;;;5.90;2.27;;;;;;;27.63;25.90;99257.34;11054540;26;20008;-66
2024/04/08 15:31:52;;;;;;;6.53;1.80;;;;;;;27.56;26.35;99243.06;10989261;26;20049;-62
2024/04/08 15:36:54;;;;;;;5.65;1.90;;;;;;;27.74;27.04;99231.72;11048145;26;20023;-62
2024/04/08 15:41:55;;;;;;;9.88;1.83;;;;;;;27.79;26.59;99233.66;11007963;26;20016;-61
2024/04/08 15:46:58;;;;;;;5.40;1.43;;;;;;;27.71;27.11;99221.31;11000712;26;20003;-63
2024/04/08 15:52:02;;;;;;;7.32;1.50;;;;;;;27.51;26.60;99200.94;11049580;26;20005;-63
2024/04/08 15:57:06;;;;;;;5.70;1.63;;;;;;;27.38;26.69;99201.38;11001673;26;20005;-63
2024/04/08 16:02:07;;;;;;;8.18;1.70;;;;;;;27.19;26.00;99197.34;10984885;26;20760;-63
2024/04/08 16:07:10;;;;;;;7.50;1.60;;;;;;;27.15;26.65;99186.94;11034820;26;20008;-64
2024/04/08 16:12:11;;;;;;;11.73;2.78;;;;;;;27.17;25.46;99186.69;10996640;26;20024;-63
2024/04/08 16:17:13;;;;;;;9.60;2.65;;;;;;;27.09;26.14;99185.25;10991442;26;20036;-65
2024/04/08 16:22:17;;;;;;;5.47;1.77;;;;;;;27.10;26.60;99183.34;10987910;26;20738;-64
2024/04/08 16:27:24;;;;;;;7.43;2.08;;;;;;;26.97;25.62;99179.13;10991299;26;20114;-66
2024/04/08 16:32:26;;;;;;;6.20;1.85;;;;;;;26.90;26.34;99194.88;10981759;26;20021;-66
2024/04/08 16:37:27;;;;;;;8.38;2.15;;;;;;;26.83;26.24;99188.78;11000561;26;20095;-66
2024/04/08 16:42:29;;;;;;;8.00;1.67;;;;;;;26.78;27.17;99187.69;11051677;26;20003;-65
2024/04/08 16:47:31;;;;;;;4.75;1.77;;;;;;;26.67;27.26;99176.91;11083389;26;20448;-65
2024/04/08 16:52:32;;;;;;;9.57;1.75;;;;;;;26.61;27.19;99176.78;11047794;26;20029;-65
2024/04/08 16:57:36;;;;;;;7.07;2.00;;;;;;;26.58;27.16;99165.56;11006184;26;21142;-64
2024/04/08 17:02:39;;;;;;;10.15;2.22;;;;;;;26.50;27.96;99152.38;11052066;26;20343;-66
2024/04/08 17:07:41;;;;;;;7.13;1.75;;;;;;;26.49;28.46;99165.19;11028168;26;20008;-64
2024/04/08 17:12:42;;;;;;;7.50;2.83;;;;;;;26.42;27.86;99149.03;11028229;26;20663;-63
2024/04/08 17:17:44;;;;;;;10.65;2.35;;;;;;;26.33;27.10;99134.16;11050766;26;20548;-64
2024/04/08 17:22:53;;;;;;;7.32;3.13;;;;;;;26.24;28.03;99132.97;11007765;26;20073;-63
2024/04/08 17:27:57;;;;;;;6.60;2.13;;;;;;;26.18;28.41;99134.00;11059191;26;20095;-65
2024/04/08 17:32:58;;;;;;;10.13;2.80;;;;;;;26.15;28.33;99124.41;10971722;26;20965;-64
2024/04/08 17:38:00;;;;;;;7.37;2.10;;;;;;;26.06;28.72;99131.38;11000652;26;20121;-64
2024/04/08 17:43:02;;;;;;;7.38;2.33;;;;;;;25.97;29.50;99128.25;11017582;26;20069;-64
2024/04/08 17:48:05;;;;;;;10.52;2.40;;;;;;;25.88;29.66;99113.41;11007164;26;20098;-64
2024/04/08 17:53:15;;;;;;;11.05;3.53;;;;;;;25.76;31.16;99111.63;11084813;26;20007;-65
2024/04/08 17:58:17;;;;;;;11.70;4.30;;;;;;;25.68;33.03;99114.75;11071978;26;20016;-66
2024/04/08 18:03:19;;;;;;;;;;;;;;;25.57;32.87;99118.44;11036373;26;20005;-65
2024/04/08 18:08:21;;;;;;;11.23;3.58;;;;;;;25.46;32.97;99108.44;10998806;26;20067;-65
2024/04/08 18:13:23;;;;;;;11.68;3.55;;;;;;;25.24;33.31;99095.56;11035150;26;20019;-63
2024/04/08 18:18:25;;;;;;;11.93;3.60;;;;;;;25.24;33.41;99109.19;11047167;26;20044;-66
2024/04/08 18:23:27;;;;;;;12.18;3.78;;;;;;;24.95;33.77;99098.38;11003209;26;20016;-65
2024/04/08 18:28:29;;;;;;;9.32;4.07;;;;;;;25.00;34.20;99119.41;11005315;26;20172;-64
2024/04/08 18:33:34;;;;;;;11.05;4.35;;;;;;;24.90;34.67;99130.09;10986808;26;20015;-66
2024/04/08 18:38:36;;;;;;;10.32;5.63;;;;;;;24.66;34.90;99103.81;11014929;26;20555;-66
2024/04/08 18:43:40;;;;;;;9.52;5.25;;;;;;;24.61;35.67;99097.50;11077327;26;20024;-63
2024/04/08 18:48:41;;;;;;;9.60;4.45;;;;;;;24.56;35.90;99108.22;11042319;26;20391;-65
2024/04/08 18:53:44;;;;;;;11.93;4.97;;;;;;;24.24;35.52;99078.78;11042396;26;20009;-65
2024/04/08 18:58:46;;;;;;;18.42;5.40;;;;;;;24.34;35.82;99122.50;11057720;26;20008;-64
2024/04/08 19:03:47;;;;;;;8.70;5.00;;;;;;;24.25;36.26;99119.34;11009434;26;20560;-67
2024/04/08 19:08:49;;;;;;;18.90;5.30;;;;;;;24.16;36.24;99115.34;11047098;26;20772;-64
2024/04/08 19:13:51;;;;;;;14.82;5.97;;;;;;;24.07;36.12;99130.38;10988480;26;22584;-65
2024/04/08 19:18:53;;;;;;;14.70;5.35;;;;;;;23.99;37.50;99132.41;11013190;26;20005;-65
2024/04/08 19:23:55;;;;;;;16.80;5.27;;;;;;;23.91;37.17;99132.75;11003986;26;20019;-70
2024/04/08 19:28:57;;;;;;;15.80;6.22;;;;;;;23.76;37.22;99103.31;11001549;26;20259;-64
2024/04/08 19:33:59;;;;;;;16.67;5.95;;;;;;;23.78;37.31;99108.50;11020329;26;20001;-65
2024/04/08 19:39:01;;;;;;;12.48;5.55;;;;;;;23.71;36.91;99113.28;11045957;26;20082;-67
2024/04/08 19:44:04;;;;;;;22.58;7.18;;;;;;;23.59;37.17;99119.53;11041090;26;20816;-65
2024/04/08 19:49:07;;;;;;;15.13;5.85;;;;;;;23.53;37.10;99139.47;11025585;26;20670;-64
2024/04/08 19:54:09;;;;;;;16.10;6.00;;;;;;;23.41;37.69;99125.06;11042959;26;20676;-63
2024/04/08 19:59:13;;;;;;;16.73;6.32;;;;;;;23.46;37.36;99144.19;11056196;26;20007;-64
2024/04/08 20:04:15;;;;;;;16.48;7.18;;;;;;;23.41;37.14;99119.66;11035675;26;20032;-65
2024/04/08 20:09:17;;;;;;;12.30;5.57;;;;;;;23.35;37.18;99132.25;11059969;26;20664;-63
2024/04/08 20:14:19;;;;;;;14.23;6.68;;;;;;;23.35;37.97;99120.59;11036021;26;20691;-63
2024/04/08 20:19:23;;;;;;;15.25;6.70;;;;;;;23.35;37.70;99104.31;11045958;26;20492;-62
2024/04/08 20:24:25;;;;;;;14.23;5.82;;;;;;;23.33;38.36;99084.69;11043058;26;20008;-66
2024/04/08 20:29:27;;;;;;;15.13;4.50;;;;;;;23.32;36.95;99069.47;11077958;26;20078;-63
2024/04/08 20:34:28;;;;;;;13.23;4.43;;;;;;;23.29;37.54;99052.59;11063913;26;20000;-65
2024/04/08 20:39:32;;;;;;;14.75;3.50;;;;;;;23.25;36.67;99062.25;11079596;26;20447;-64
2024/04/08 20:44:35;;;;;;;16.27;5.40;;;;;;;23.19;36.70;99065.91;11083939;26;20839;-64
2024/04/08 20:49:36;;;;;;;16.98;4.78;;;;;;;23.10;36.87;99037.47;11055601;26;20039;-63
2024/04/08 20:54:39;;;;;;;14.23;5.57;;;;;;;23.08;37.42;99028.72;11057926;26;20004;-63
2024/04/08 20:59:41;;;;;;;14.05;4.70;;;;;;;23.02;36.93;99029.66;11077685;26;20011;-62
2024/04/08 21:04:43;;;;;;;12.90;4.75;;;;;;;22.97;37.89;99032.22;11065217;26;20019;-63
2024/04/08 21:09:45;;;;;;;10.85;3.78;;;;;;;22.94;38.00;99031.66;11061866;26;20012;-63
2024/04/08 21:14:46;;;;;;;13.75;4.32;;;;;;;22.89;38.33;99030.69;11065399;26;20781;-63
2024/04/08 21:19:49;;;;;;;13.88;4.90;;;;;;;22.87;38.41;99028.22;11071954;26;20601;-65
2024/04/08 21:24:51;;;;;;;;;;;;;;;22.85;38.29;99045.78;11060515;26;20756;-66
2024/04/08 21:29:53;;;;;;;10.25;4.35;;;;;;;22.80;37.96;99042.94;11062178;26;19933;-64
2024/04/08 21:34:54;;;;;;;15.52;4.32;;;;;;;22.76;38.34;99031.75;11077504;26;20676;-64
2024/04/08 21:39:56;;;;;;;16.00;4.50;;;;;;;22.73;37.95;99016.75;11061356;26;20016;-63
2024/04/08 21:44:57;;;;;;;13.25;4.38;;;;;;;22.68;38.75;98996.81;11078167;26;20023;-62
2024/04/08 21:49:59;;;;;;;12.68;5.80;;;;;;;22.66;39.02;98983.50;11081669;26;20665;-63
2024/04/08 21:55:01;;;;;;;13.75;5.05;;;;;;;22.58;39.30;98979.25;11088924;26;20061;-63
2024/04/08 22:00:09;;;;;;;14.63;5.65;;;;;;;22.53;38.91;98978.28;11059045;26;20073;-64
2024/04/08 22:05:11;;;;;;;14.00;4.68;;;;;;;22.45;39.14;98973.22;11034363;26;20528;-65
2024/04/08 22:10:13;;;;;;;14.45;5.28;;;;;;;22.41;39.53;98970.13;11040020;26;20008;-63
2024/04/08 22:15:14;;;;;;;15.60;5.38;;;;;;;22.35;39.55;98952.94;11003568;26;20059;-64
2024/04/08 22:20:16;;;;;;;17.10;4.85;;;;;;;22.28;39.21;98963.00;10996447;26;20044;-66
2024/04/08 22:25:18;;;;;;;16.85;5.35;;;;;;;22.12;40.42;98923.81;10999235;26;20013;-66
2024/04/08 22:30:20;;;;;;;13.80;5.68;;;;;;;22.20;40.54;98937.06;10999407;26;20655;-65
2024/04/08 22:35:22;;;;;;;16.48;5.88;;;;;;;22.12;41.00;98923.81;10994621;26;20027;-64
2024/04/08 22:40:24;;;;;;;15.65;5.28;;;;;;;22.16;40.88;98935.88;10999380;26;20020;-62
2024/04/08 22:45:25;;;;;;;26.33;6.80;;;;;;;22.13;41.45;98930.91;10999056;26;20607;-64
2024/04/08 22:50:27;;;;;;;14.10;5.93;;;;;;;22.08;41.31;98930.75;11006077;26;20643;-64
2024/04/08 22:55:29;;;;;;;16.42;6.22;;;;;;;21.98;41.61;98925.91;11030883;26;20024;-64
2024/04/08 23:00:30;;;;;;;13.90;4.72;;;;;;;21.99;42.39;98940.28;11000435;26;21226;-62
2024/04/08 23:05:34;;;;;;;13.13;4.93;;;;;;;21.97;41.73;98936.97;10996333;26;20581;-63
2024/04/08 23:10:38;;;;;;;17.40;5.05;;;;;;;21.95;42.16;98928.25;11062326;26;20623;-62
2024/04/08 23:15:40;;;;;;;13.95;4.50;;;;;;;21.94;42.54;98932.03;11003452;26;20013;-64
2024/04/08 23:20:41;;;;;;;23.80;5.50;;;;;;;21.89;40.97;98930.00;10998263;26;20031;-64
2024/04/08 23:25:43;;;;;;;17.42;5.43;;;;;;;21.92;41.59;98953.09;10999207;26;20522;-63